sensor_id;sensor_type;location;lat;lon;timestamp;temperature;humidity
51383;DHT22;37475;43.358;1.248;2023-04-24T00:00:11;9.80;95.00
51383;DHT22;37475;43.358;1.248;2023-04-24T00:02:41;9.90;95.00
51383;DHT22;37475;43.358;1.248;2023-04-24T00:05:12;9.90;95.00
51383;DHT22;37475;43.358;1.248;2023-04-24T00:07:39;10.00;95.00
51383;DHT22;37475;43.358;1.248;2023-04-24T00:10:06;10.10;95.00
51383;DHT22;37475;43.358;1.248;2023-04-24T00:12:33;10.20;95.00
51383;DHT22;37475;43.358;1.248;2023-04-24T00:14:59;10.20;94.90
51383;DHT22;37475;43.358;1.248;2023-04-24T00:17:25;10.30;94.70
51383;DHT22;37475;43.358;1.248;2023-04-24T00:19:51;10.40;94.50
51383;DHT22;37475;43.358;1.248;2023-04-24T00:22:17;10.60;94.10
51383;DHT22;37475;43.358;1.248;2023-04-24T00:24:43;10.60;93.60
51383;DHT22;37475;43.358;1.248;2023-04-24T00:27:09;10.60;93.10
51383;DHT22;37475;43.358;1.248;2023-04-24T00:29:34;10.60;92.70
51383;DHT22;37475;43.358;1.248;2023-04-24T00:32:00;10.70;92.40
51383;DHT22;37475;43.358;1.248;2023-04-24T00:34:26;10.60;92.10
51383;DHT22;37475;43.358;1.248;2023-04-24T00:36:52;10.70;92.00
51383;DHT22;37475;43.358;1.248;2023-04-24T00:39:21;10.60;92.00
51383;DHT22;37475;43.358;1.248;2023-04-24T00:41:48;10.60;92.20
51383;DHT22;37475;43.358;1.248;2023-04-24T00:44:14;10.50;92.30
51383;DHT22;37475;43.358;1.248;2023-04-24T00:46:41;10.40;92.50
51383;DHT22;37475;43.358;1.248;2023-04-24T00:49:08;10.40;92.70
51383;DHT22;37475;43.358;1.248;2023-04-24T00:51:33;10.40;92.80
51383;DHT22;37475;43.358;1.248;2023-04-24T00:54:02;10.30;93.00
51383;DHT22;37475;43.358;1.248;2023-04-24T00:56:28;10.30;93.10
51383;DHT22;37475;43.358;1.248;2023-04-24T00:58:54;10.20;93.20
51383;DHT22;37475;43.358;1.248;2023-04-24T01:01:21;10.20;93.30
51383;DHT22;37475;43.358;1.248;2023-04-24T01:03:49;10.20;93.30
51383;DHT22;37475;43.358;1.248;2023-04-24T01:06:16;10.30;93.30
51383;DHT22;37475;43.358;1.248;2023-04-24T01:08:46;10.20;93.30
51383;DHT22;37475;43.358;1.248;2023-04-24T01:11:12;10.30;93.30
51383;DHT22;37475;43.358;1.248;2023-04-24T01:13:38;10.30;93.10
51383;DHT22;37475;43.358;1.248;2023-04-24T01:16:04;10.30;93.00
51383;DHT22;37475;43.358;1.248;2023-04-24T01:18:30;10.40;92.90
51383;DHT22;37475;43.358;1.248;2023-04-24T01:20:59;10.40;92.80
51383;DHT22;37475;43.358;1.248;2023-04-24T01:23:26;10.40;92.80
51383;DHT22;37475;43.358;1.248;2023-04-24T01:25:52;10.30;92.80
51383;DHT22;37475;43.358;1.248;2023-04-24T01:28:18;10.40;92.60
51383;DHT22;37475;43.358;1.248;2023-04-24T01:30:44;10.20;92.70
51383;DHT22;37475;43.358;1.248;2023-04-24T01:33:10;10.20;92.90
51383;DHT22;37475;43.358;1.248;2023-04-24T01:35:37;10.20;93.10
51383;DHT22;37475;43.358;1.248;2023-04-24T01:38:03;10.20;93.30
51383;DHT22;37475;43.358;1.248;2023-04-24T01:40:31;10.20;93.30
51383;DHT22;37475;43.358;1.248;2023-04-24T01:42:58;10.30;93.30
51383;DHT22;37475;43.358;1.248;2023-04-24T01:45:24;10.20;93.40
51383;DHT22;37475;43.358;1.248;2023-04-24T01:47:50;10.20;93.50
51383;DHT22;37475;43.358;1.248;2023-04-24T01:50:17;10.10;93.60
51383;DHT22;37475;43.358;1.248;2023-04-24T01:52:43;10.10;93.80
51383;DHT22;37475;43.358;1.248;2023-04-24T01:55:10;10.10;93.90
51383;DHT22;37475;43.358;1.248;2023-04-24T01:57:36;10.10;94.00
51383;DHT22;37475;43.358;1.248;2023-04-24T02:00:03;10.20;94.00
51383;DHT22;37475;43.358;1.248;2023-04-24T02:02:30;10.20;94.00
51383;DHT22;37475;43.358;1.248;2023-04-24T02:04:57;10.20;93.90
51383;DHT22;37475;43.358;1.248;2023-04-24T02:07:23;10.20;93.80
51383;DHT22;37475;43.358;1.248;2023-04-24T02:09:48;10.10;93.70
51383;DHT22;37475;43.358;1.248;2023-04-24T02:12:15;10.20;93.60
51383;DHT22;37475;43.358;1.248;2023-04-24T02:14:43;10.10;93.40
51383;DHT22;37475;43.358;1.248;2023-04-24T02:17:09;9.90;93.40
51383;DHT22;37475;43.358;1.248;2023-04-24T02:19:38;9.70;93.70
51383;DHT22;37475;43.358;1.248;2023-04-24T02:22:04;9.70;94.10
51383;DHT22;37475;43.358;1.248;2023-04-24T02:24:30;9.60;94.30
51383;DHT22;37475;43.358;1.248;2023-04-24T02:26:56;9.60;94.40
51383;DHT22;37475;43.358;1.248;2023-04-24T02:29:23;9.60;94.40
51383;DHT22;37475;43.358;1.248;2023-04-24T02:31:49;9.60;94.50
51383;DHT22;37475;43.358;1.248;2023-04-24T02:34:14;9.60;94.60
51383;DHT22;37475;43.358;1.248;2023-04-24T02:36:41;9.60;94.70
51383;DHT22;37475;43.358;1.248;2023-04-24T02:39:07;9.60;94.70
51383;DHT22;37475;43.358;1.248;2023-04-24T02:41:33;9.60;94.70
51383;DHT22;37475;43.358;1.248;2023-04-24T02:43:59;9.60;94.70
51383;DHT22;37475;43.358;1.248;2023-04-24T02:46:25;9.70;94.80
51383;DHT22;37475;43.358;1.248;2023-04-24T02:48:51;9.60;94.80
51383;DHT22;37475;43.358;1.248;2023-04-24T02:51:17;9.60;94.80
51383;DHT22;37475;43.358;1.248;2023-04-24T02:53:43;9.70;94.80
51383;DHT22;37475;43.358;1.248;2023-04-24T02:56:08;9.70;94.70
51383;DHT22;37475;43.358;1.248;2023-04-24T02:58:37;9.70;94.80
51383;DHT22;37475;43.358;1.248;2023-04-24T03:01:03;9.80;94.80
51383;DHT22;37475;43.358;1.248;2023-04-24T03:03:30;9.80;94.70
51383;DHT22;37475;43.358;1.248;2023-04-24T03:05:56;9.80;94.60
51383;DHT22;37475;43.358;1.248;2023-04-24T03:08:22;9.80;94.50
51383;DHT22;37475;43.358;1.248;2023-04-24T03:10:48;9.80;94.40
51383;DHT22;37475;43.358;1.248;2023-04-24T03:13:16;9.80;94.30
51383;DHT22;37475;43.358;1.248;2023-04-24T03:15:42;9.80;94.20
51383;DHT22;37475;43.358;1.248;2023-04-24T03:18:08;9.80;94.20
51383;DHT22;37475;43.358;1.248;2023-04-24T03:20:33;9.90;94.10
51383;DHT22;37475;43.358;1.248;2023-04-24T03:22:59;9.90;94.00
51383;DHT22;37475;43.358;1.248;2023-04-24T03:25:25;10.00;94.10
51383;DHT22;37475;43.358;1.248;2023-04-24T03:27:51;10.10;94.00
51383;DHT22;37475;43.358;1.248;2023-04-24T03:30:17;10.10;94.00
51383;DHT22;37475;43.358;1.248;2023-04-24T03:32:43;10.10;93.90
51383;DHT22;37475;43.358;1.248;2023-04-24T03:35:09;10.20;93.90
51383;DHT22;37475;43.358;1.248;2023-04-24T03:37:35;10.20;93.80
51383;DHT22;37475;43.358;1.248;2023-04-24T03:40:01;10.10;93.80
51383;DHT22;37475;43.358;1.248;2023-04-24T03:42:27;10.20;93.90
51383;DHT22;37475;43.358;1.248;2023-04-24T03:44:53;10.40;94.00
51383;DHT22;37475;43.358;1.248;2023-04-24T03:47:19;10.60;93.90
51383;DHT22;37475;43.358;1.248;2023-04-24T03:49:45;10.70;93.70
51383;DHT22;37475;43.358;1.248;2023-04-24T03:52:11;10.80;93.50
51383;DHT22;37475;43.358;1.248;2023-04-24T03:54:37;10.80;93.40
51383;DHT22;37475;43.358;1.248;2023-04-24T03:57:02;10.80;93.40
51383;DHT22;37475;43.358;1.248;2023-04-24T03:59:30;10.80;93.50
51383;DHT22;37475;43.358;1.248;2023-04-24T04:01:56;10.80;93.40
51383;DHT22;37475;43.358;1.248;2023-04-24T04:04:21;10.80;93.40
51383;DHT22;37475;43.358;1.248;2023-04-24T04:06:47;10.80;93.40
51383;DHT22;37475;43.358;1.248;2023-04-24T04:09:14;10.80;93.40
51383;DHT22;37475;43.358;1.248;2023-04-24T04:11:40;10.80;93.30
51383;DHT22;37475;43.358;1.248;2023-04-24T04:14:06;10.70;93.40
51383;DHT22;37475;43.358;1.248;2023-04-24T04:16:32;10.70;93.30
51383;DHT22;37475;43.358;1.248;2023-04-24T04:18:58;10.70;93.40
51383;DHT22;37475;43.358;1.248;2023-04-24T04:21:24;10.70;93.50
51383;DHT22;37475;43.358;1.248;2023-04-24T04:23:50;10.70;93.30
51383;DHT22;37475;43.358;1.248;2023-04-24T04:26:15;10.60;93.40
51383;DHT22;37475;43.358;1.248;2023-04-24T04:28:41;10.50;93.50
51383;DHT22;37475;43.358;1.248;2023-04-24T04:31:07;10.40;93.70
51383;DHT22;37475;43.358;1.248;2023-04-24T04:33:33;10.30;93.70
51383;DHT22;37475;43.358;1.248;2023-04-24T04:35:59;10.30;93.80
51383;DHT22;37475;43.358;1.248;2023-04-24T04:38:26;10.20;93.90
51383;DHT22;37475;43.358;1.248;2023-04-24T04:40:55;10.20;93.90
51383;DHT22;37475;43.358;1.248;2023-04-24T04:43:24;10.10;94.00
51383;DHT22;37475;43.358;1.248;2023-04-24T04:45:51;10.10;94.10
51383;DHT22;37475;43.358;1.248;2023-04-24T04:48:18;10.00;94.20
51383;DHT22;37475;43.358;1.248;2023-04-24T04:50:44;9.80;94.60
51383;DHT22;37475;43.358;1.248;2023-04-24T04:53:10;9.80;94.70
51383;DHT22;37475;43.358;1.248;2023-04-24T04:55:37;9.90;94.70
51383;DHT22;37475;43.358;1.248;2023-04-24T04:58:03;9.90;94.70
51383;DHT22;37475;43.358;1.248;2023-04-24T05:00:29;9.90;94.60
51383;DHT22;37475;43.358;1.248;2023-04-24T05:02:59;9.90;94.50
51383;DHT22;37475;43.358;1.248;2023-04-24T05:05:25;9.90;94.40
51383;DHT22;37475;43.358;1.248;2023-04-24T05:07:51;9.80;94.20
51383;DHT22;37475;43.358;1.248;2023-04-24T05:10:17;9.60;94.10
51383;DHT22;37475;43.358;1.248;2023-04-24T05:12:42;9.50;94.10
51383;DHT22;37475;43.358;1.248;2023-04-24T05:15:08;9.40;94.30
51383;DHT22;37475;43.358;1.248;2023-04-24T05:17:36;9.40;94.40
51383;DHT22;37475;43.358;1.248;2023-04-24T05:20:03;9.30;94.50
51383;DHT22;37475;43.358;1.248;2023-04-24T05:22:31;9.40;94.60
51383;DHT22;37475;43.358;1.248;2023-04-24T05:24:57;9.40;94.50
51383;DHT22;37475;43.358;1.248;2023-04-24T05:27:23;9.40;94.50
51383;DHT22;37475;43.358;1.248;2023-04-24T05:29:48;9.30;94.50
51383;DHT22;37475;43.358;1.248;2023-04-24T05:32:14;9.20;94.60
51383;DHT22;37475;43.358;1.248;2023-04-24T05:34:40;9.20;94.90
51383;DHT22;37475;43.358;1.248;2023-04-24T05:37:06;9.30;95.00
51383;DHT22;37475;43.358;1.248;2023-04-24T05:39:34;9.30;95.20
51383;DHT22;37475;43.358;1.248;2023-04-24T05:42:00;9.40;95.30
51383;DHT22;37475;43.358;1.248;2023-04-24T05:44:27;9.40;95.40
51383;DHT22;37475;43.358;1.248;2023-04-24T05:46:53;9.50;95.50
51383;DHT22;37475;43.358;1.248;2023-04-24T05:49:20;9.60;95.50
51383;DHT22;37475;43.358;1.248;2023-04-24T05:51:46;9.60;95.50
51383;DHT22;37475;43.358;1.248;2023-04-24T05:54:12;9.70;95.50
51383;DHT22;37475;43.358;1.248;2023-04-24T05:56:38;9.80;95.60
51383;DHT22;37475;43.358;1.248;2023-04-24T05:59:04;9.90;95.60
51383;DHT22;37475;43.358;1.248;2023-04-24T06:01:30;10.00;95.60
51383;DHT22;37475;43.358;1.248;2023-04-24T06:03:57;10.10;95.60
51383;DHT22;37475;43.358;1.248;2023-04-24T06:06:24;10.20;95.50
51383;DHT22;37475;43.358;1.248;2023-04-24T06:08:50;10.20;95.40
51383;DHT22;37475;43.358;1.248;2023-04-24T06:11:15;10.20;95.40
51383;DHT22;37475;43.358;1.248;2023-04-24T06:13:41;10.20;95.20
51383;DHT22;37475;43.358;1.248;2023-04-24T06:16:07;10.20;95.20
51383;DHT22;37475;43.358;1.248;2023-04-24T06:18:33;10.20;95.10
51383;DHT22;37475;43.358;1.248;2023-04-24T06:20:59;10.20;95.00
51383;DHT22;37475;43.358;1.248;2023-04-24T06:23:25;10.30;94.90
51383;DHT22;37475;43.358;1.248;2023-04-24T06:25:51;10.20;94.90
51383;DHT22;37475;43.358;1.248;2023-04-24T06:28:17;10.30;94.90
51383;DHT22;37475;43.358;1.248;2023-04-24T06:30:42;10.30;94.90
51383;DHT22;37475;43.358;1.248;2023-04-24T06:33:09;10.40;94.80
51383;DHT22;37475;43.358;1.248;2023-04-24T06:35:36;10.40;94.80
51383;DHT22;37475;43.358;1.248;2023-04-24T06:38:03;10.50;94.70
51383;DHT22;37475;43.358;1.248;2023-04-24T06:40:29;10.60;94.50
51383;DHT22;37475;43.358;1.248;2023-04-24T06:42:55;10.60;94.10
51383;DHT22;37475;43.358;1.248;2023-04-24T06:45:23;10.70;94.10
51383;DHT22;37475;43.358;1.248;2023-04-24T06:47:49;10.70;94.00
51383;DHT22;37475;43.358;1.248;2023-04-24T06:50:14;10.80;93.90
51383;DHT22;37475;43.358;1.248;2023-04-24T06:52:41;10.90;93.80
51383;DHT22;37475;43.358;1.248;2023-04-24T06:55:07;11.10;93.70
51383;DHT22;37475;43.358;1.248;2023-04-24T06:57:33;11.20;93.40
51383;DHT22;37475;43.358;1.248;2023-04-24T06:59:59;11.40;92.90
51383;DHT22;37475;43.358;1.248;2023-04-24T07:02:25;11.60;92.70
51383;DHT22;37475;43.358;1.248;2023-04-24T07:04:51;11.70;91.60
51383;DHT22;37475;43.358;1.248;2023-04-24T07:07:18;12.00;91.90
51383;DHT22;37475;43.358;1.248;2023-04-24T07:09:44;12.10;91.50
51383;DHT22;37475;43.358;1.248;2023-04-24T07:12:11;12.20;90.70
51383;DHT22;37475;43.358;1.248;2023-04-24T07:14:37;12.30;90.80
51383;DHT22;37475;43.358;1.248;2023-04-24T07:17:04;12.30;90.50
51383;DHT22;37475;43.358;1.248;2023-04-24T07:19:30;12.30;90.50
51383;DHT22;37475;43.358;1.248;2023-04-24T07:21:56;12.20;90.30
51383;DHT22;37475;43.358;1.248;2023-04-24T07:24:24;12.20;90.20
51383;DHT22;37475;43.358;1.248;2023-04-24T07:26:51;12.10;90.10
51383;DHT22;37475;43.358;1.248;2023-04-24T07:29:18;12.10;90.00
51383;DHT22;37475;43.358;1.248;2023-04-24T07:31:45;12.20;89.90
51383;DHT22;37475;43.358;1.248;2023-04-24T07:34:11;12.40;90.10
51383;DHT22;37475;43.358;1.248;2023-04-24T07:36:37;12.60;89.80
51383;DHT22;37475;43.358;1.248;2023-04-24T07:39:05;12.70;89.00
51383;DHT22;37475;43.358;1.248;2023-04-24T07:41:31;13.10;89.40
51383;DHT22;37475;43.358;1.248;2023-04-24T07:43:57;13.10;89.00
51383;DHT22;37475;43.358;1.248;2023-04-24T07:46:23;13.20;88.50
51383;DHT22;37475;43.358;1.248;2023-04-24T07:48:50;13.30;88.10
51383;DHT22;37475;43.358;1.248;2023-04-24T07:51:16;13.20;87.50
51383;DHT22;37475;43.358;1.248;2023-04-24T07:53:42;13.20;87.10
51383;DHT22;37475;43.358;1.248;2023-04-24T07:56:09;13.30;87.00
51383;DHT22;37475;43.358;1.248;2023-04-24T07:58:35;13.30;85.80
51383;DHT22;37475;43.358;1.248;2023-04-24T08:01:01;13.30;86.10
51383;DHT22;37475;43.358;1.248;2023-04-24T08:03:27;13.50;85.50
51383;DHT22;37475;43.358;1.248;2023-04-24T08:05:54;13.60;86.50
51383;DHT22;37475;43.358;1.248;2023-04-24T08:08:23;13.70;86.40
51383;DHT22;37475;43.358;1.248;2023-04-24T08:10:49;13.70;84.90
51383;DHT22;37475;43.358;1.248;2023-04-24T08:13:15;13.80;85.50
51383;DHT22;37475;43.358;1.248;2023-04-24T08:15:41;14.00;84.30
51383;DHT22;37475;43.358;1.248;2023-04-24T08:18:07;14.10;83.80
51383;DHT22;37475;43.358;1.248;2023-04-24T08:20:33;14.30;85.00
51383;DHT22;37475;43.358;1.248;2023-04-24T08:22:59;14.30;83.40
51383;DHT22;37475;43.358;1.248;2023-04-24T08:25:25;14.30;80.90
51383;DHT22;37475;43.358;1.248;2023-04-24T08:27:51;14.30;82.30
51383;DHT22;37475;43.358;1.248;2023-04-24T08:30:17;14.50;82.80
51383;DHT22;37475;43.358;1.248;2023-04-24T08:32:44;14.70;83.00
51383;DHT22;37475;43.358;1.248;2023-04-24T08:35:09;14.70;79.80
51383;DHT22;37475;43.358;1.248;2023-04-24T08:37:35;14.60;80.20
51383;DHT22;37475;43.358;1.248;2023-04-24T08:40:06;14.60;79.90
51383;DHT22;37475;43.358;1.248;2023-04-24T08:42:44;14.80;80.90
51383;DHT22;37475;43.358;1.248;2023-04-24T08:45:12;14.70;80.30
51383;DHT22;37475;43.358;1.248;2023-04-24T08:47:39;14.80;82.30
51383;DHT22;37475;43.358;1.248;2023-04-24T08:50:07;14.80;80.30
51383;DHT22;37475;43.358;1.248;2023-04-24T08:52:34;14.80;79.30
51383;DHT22;37475;43.358;1.248;2023-04-24T08:55:01;14.80;80.30
51383;DHT22;37475;43.358;1.248;2023-04-24T08:57:28;14.80;80.90
51383;DHT22;37475;43.358;1.248;2023-04-24T08:59:55;15.00;80.80
51383;DHT22;37475;43.358;1.248;2023-04-24T09:02:23;15.00;79.70
51383;DHT22;37475;43.358;1.248;2023-04-24T09:04:50;14.80;79.50
51383;DHT22;37475;43.358;1.248;2023-04-24T09:07:18;14.80;81.20
51383;DHT22;37475;43.358;1.248;2023-04-24T09:09:45;14.70;81.00
51383;DHT22;37475;43.358;1.248;2023-04-24T09:12:11;14.70;80.40
51383;DHT22;37475;43.358;1.248;2023-04-24T09:14:38;14.60;78.80
51383;DHT22;37475;43.358;1.248;2023-04-24T09:17:08;14.80;79.00
51383;DHT22;37475;43.358;1.248;2023-04-24T09:19:33;14.80;79.60
51383;DHT22;37475;43.358;1.248;2023-04-24T09:21:59;15.20;79.30
51383;DHT22;37475;43.358;1.248;2023-04-24T09:24:30;15.50;78.80
51383;DHT22;37475;43.358;1.248;2023-04-24T09:26:59;15.30;78.30
51383;DHT22;37475;43.358;1.248;2023-04-24T09:29:27;15.10;77.00
51383;DHT22;37475;43.358;1.248;2023-04-24T09:31:53;15.30;77.80
51383;DHT22;37475;43.358;1.248;2023-04-24T09:34:24;15.30;75.30
51383;DHT22;37475;43.358;1.248;2023-04-24T09:36:51;15.00;75.00
51383;DHT22;37475;43.358;1.248;2023-04-24T09:39:18;15.10;75.30
51383;DHT22;37475;43.358;1.248;2023-04-24T09:41:54;15.20;75.50
51383;DHT22;37475;43.358;1.248;2023-04-24T09:44:26;15.60;76.00
51383;DHT22;37475;43.358;1.248;2023-04-24T09:46:59;15.50;75.40
51383;DHT22;37475;43.358;1.248;2023-04-24T09:49:25;15.70;75.50
51383;DHT22;37475;43.358;1.248;2023-04-24T09:52:02;16.00;76.80
51383;DHT22;37475;43.358;1.248;2023-04-24T09:54:32;15.80;71.70
51383;DHT22;37475;43.358;1.248;2023-04-24T09:56:58;16.10;73.80
51383;DHT22;37475;43.358;1.248;2023-04-24T09:59:26;16.10;70.50
51383;DHT22;37475;43.358;1.248;2023-04-24T10:01:51;16.00;71.80
51383;DHT22;37475;43.358;1.248;2023-04-24T10:04:22;16.10;73.60
51383;DHT22;37475;43.358;1.248;2023-04-24T10:06:50;16.70;72.20
51383;DHT22;37475;43.358;1.248;2023-04-24T10:09:19;16.70;70.40
51383;DHT22;37475;43.358;1.248;2023-04-24T10:11:50;16.70;69.30
51383;DHT22;37475;43.358;1.248;2023-04-24T10:14:23;16.70;69.30
51383;DHT22;37475;43.358;1.248;2023-04-24T10:16:52;16.40;72.10
51383;DHT22;37475;43.358;1.248;2023-04-24T10:19:18;16.20;69.70
51383;DHT22;37475;43.358;1.248;2023-04-24T10:21:45;16.40;71.80
51383;DHT22;37475;43.358;1.248;2023-04-24T10:24:16;16.60;71.30
51383;DHT22;37475;43.358;1.248;2023-04-24T10:26:44;16.60;69.90
51383;DHT22;37475;43.358;1.248;2023-04-24T10:29:12;16.30;70.70
51383;DHT22;37475;43.358;1.248;2023-04-24T10:31:40;16.60;69.90
51383;DHT22;37475;43.358;1.248;2023-04-24T10:34:09;16.60;67.60
51383;DHT22;37475;43.358;1.248;2023-04-24T10:36:38;16.80;68.60
51383;DHT22;37475;43.358;1.248;2023-04-24T10:39:09;16.50;70.60
51383;DHT22;37475;43.358;1.248;2023-04-24T10:41:37;16.90;71.30
51383;DHT22;37475;43.358;1.248;2023-04-24T10:44:15;17.10;69.40
51383;DHT22;37475;43.358;1.248;2023-04-24T10:46:46;16.80;70.40
51383;DHT22;37475;43.358;1.248;2023-04-24T10:49:30;17.10;68.80
51383;DHT22;37475;43.358;1.248;2023-04-24T10:52:02;17.10;68.40
51383;DHT22;37475;43.358;1.248;2023-04-24T10:59:46;17.90;64.90
51383;DHT22;37475;43.358;1.248;2023-04-24T11:02:16;17.80;64.40
51383;DHT22;37475;43.358;1.248;2023-04-24T11:04:43;17.60;67.10
51383;DHT22;37475;43.358;1.248;2023-04-24T11:07:10;17.30;67.60
51383;DHT22;37475;43.358;1.248;2023-04-24T11:09:37;17.10;67.00
51383;DHT22;37475;43.358;1.248;2023-04-24T11:12:07;17.50;68.80
51383;DHT22;37475;43.358;1.248;2023-04-24T11:17:43;18.40;67.50
51383;DHT22;37475;43.358;1.248;2023-04-24T11:20:11;18.60;66.20
51383;DHT22;37475;43.358;1.248;2023-04-24T11:22:41;18.80;64.80
51383;DHT22;37475;43.358;1.248;2023-04-24T11:25:07;19.10;65.50
51383;DHT22;37475;43.358;1.248;2023-04-24T11:27:42;18.90;63.70
51383;DHT22;37475;43.358;1.248;2023-04-24T11:30:10;18.20;64.50
51383;DHT22;37475;43.358;1.248;2023-04-24T11:32:40;18.20;65.60
51383;DHT22;37475;43.358;1.248;2023-04-24T11:35:08;18.50;65.60
51383;DHT22;37475;43.358;1.248;2023-04-24T11:37:40;18.70;65.10
51383;DHT22;37475;43.358;1.248;2023-04-24T11:40:17;18.70;64.70
51383;DHT22;37475;43.358;1.248;2023-04-24T11:42:49;18.30;66.20
51383;DHT22;37475;43.358;1.248;2023-04-24T11:45:25;17.90;64.90
51383;DHT22;37475;43.358;1.248;2023-04-24T11:47:55;18.10;65.10
51383;DHT22;37475;43.358;1.248;2023-04-24T11:50:23;18.10;64.20
51383;DHT22;37475;43.358;1.248;2023-04-24T11:52:54;18.00;65.60
51383;DHT22;37475;43.358;1.248;2023-04-24T11:57:50;17.70;65.50
51383;DHT22;37475;43.358;1.248;2023-04-24T12:00:23;17.60;66.40
51383;DHT22;37475;43.358;1.248;2023-04-24T12:02:50;17.70;68.10
51383;DHT22;37475;43.358;1.248;2023-04-24T12:05:24;17.80;65.10
51383;DHT22;37475;43.358;1.248;2023-04-24T12:07:52;17.90;65.10
51383;DHT22;37475;43.358;1.248;2023-04-24T12:10:26;18.40;66.00
51383;DHT22;37475;43.358;1.248;2023-04-24T12:12:54;18.80;64.50
51383;DHT22;37475;43.358;1.248;2023-04-24T12:15:22;18.90;65.90
51383;DHT22;37475;43.358;1.248;2023-04-24T12:17:51;18.80;63.70
51383;DHT22;37475;43.358;1.248;2023-04-24T12:20:32;18.60;63.30
51383;DHT22;37475;43.358;1.248;2023-04-24T12:23:00;18.60;62.20
51383;DHT22;37475;43.358;1.248;2023-04-24T12:25:28;18.70;63.30
51383;DHT22;37475;43.358;1.248;2023-04-24T12:30:34;18.50;62.20
51383;DHT22;37475;43.358;1.248;2023-04-24T12:33:03;18.90;62.30
51383;DHT22;37475;43.358;1.248;2023-04-24T12:35:31;19.30;60.90
51383;DHT22;37475;43.358;1.248;2023-04-24T12:38:13;19.20;58.90
51383;DHT22;37475;43.358;1.248;2023-04-24T12:40:40;19.10;60.00
51383;DHT22;37475;43.358;1.248;2023-04-24T12:43:17;18.80;58.70
51383;DHT22;37475;43.358;1.248;2023-04-24T12:45:44;19.30;60.80
51383;DHT22;37475;43.358;1.248;2023-04-24T12:48:11;19.50;62.20
51383;DHT22;37475;43.358;1.248;2023-04-24T12:50:38;19.20;58.10
51383;DHT22;37475;43.358;1.248;2023-04-24T12:53:04;18.40;59.80
51383;DHT22;37475;43.358;1.248;2023-04-24T12:55:30;18.60;61.50
51383;DHT22;37475;43.358;1.248;2023-04-24T12:57:55;19.30;60.70
51383;DHT22;37475;43.358;1.248;2023-04-24T13:00:21;20.30;58.60
51383;DHT22;37475;43.358;1.248;2023-04-24T13:02:47;20.60;55.30
51383;DHT22;37475;43.358;1.248;2023-04-24T13:05:13;21.10;52.70
51383;DHT22;37475;43.358;1.248;2023-04-24T13:07:39;21.30;53.10
51383;DHT22;37475;43.358;1.248;2023-04-24T13:10:06;21.50;53.00
51383;DHT22;37475;43.358;1.248;2023-04-24T13:12:32;21.10;50.80
51383;DHT22;37475;43.358;1.248;2023-04-24T13:14:58;20.30;54.90
51383;DHT22;37475;43.358;1.248;2023-04-24T13:17:24;20.10;56.70
51383;DHT22;37475;43.358;1.248;2023-04-24T13:19:51;20.30;58.20
51383;DHT22;37475;43.358;1.248;2023-04-24T13:22:17;19.60;54.60
51383;DHT22;37475;43.358;1.248;2023-04-24T13:24:46;20.30;58.60
51383;DHT22;37475;43.358;1.248;2023-04-24T13:27:14;20.60;59.10
51383;DHT22;37475;43.358;1.248;2023-04-24T13:29:40;20.50;59.00
51383;DHT22;37475;43.358;1.248;2023-04-24T13:32:07;20.10;55.60
51383;DHT22;37475;43.358;1.248;2023-04-24T13:34:33;20.10;58.50
51383;DHT22;37475;43.358;1.248;2023-04-24T13:37:00;19.80;58.80
51383;DHT22;37475;43.358;1.248;2023-04-24T13:39:26;19.60;57.40
51383;DHT22;37475;43.358;1.248;2023-04-24T13:41:53;19.80;60.40
51383;DHT22;37475;43.358;1.248;2023-04-24T13:44:20;20.00;57.20
51383;DHT22;37475;43.358;1.248;2023-04-24T13:46:48;20.10;56.50
51383;DHT22;37475;43.358;1.248;2023-04-24T13:49:16;19.20;59.70
51383;DHT22;37475;43.358;1.248;2023-04-24T13:51:43;18.70;61.10
51383;DHT22;37475;43.358;1.248;2023-04-24T13:54:09;19.10;60.90
51383;DHT22;37475;43.358;1.248;2023-04-24T13:56:35;19.20;61.40
51383;DHT22;37475;43.358;1.248;2023-04-24T13:59:01;19.50;60.50
51383;DHT22;37475;43.358;1.248;2023-04-24T14:01:27;19.40;58.90
51383;DHT22;37475;43.358;1.248;2023-04-24T14:03:54;19.50;61.40
51383;DHT22;37475;43.358;1.248;2023-04-24T14:06:21;19.60;61.60
51383;DHT22;37475;43.358;1.248;2023-04-24T14:08:48;19.40;61.70
51383;DHT22;37475;43.358;1.248;2023-04-24T14:11:15;19.00;61.20
51383;DHT22;37475;43.358;1.248;2023-04-24T14:13:42;19.00;60.80
51383;DHT22;37475;43.358;1.248;2023-04-24T14:16:09;19.20;60.40
51383;DHT22;37475;43.358;1.248;2023-04-24T14:18:35;19.50;61.10
51383;DHT22;37475;43.358;1.248;2023-04-24T14:21:04;19.50;63.80
51383;DHT22;37475;43.358;1.248;2023-04-24T14:23:31;19.70;63.00
51383;DHT22;37475;43.358;1.248;2023-04-24T14:25:59;19.40;60.10
51383;DHT22;37475;43.358;1.248;2023-04-24T14:28:26;19.40;61.40
51383;DHT22;37475;43.358;1.248;2023-04-24T14:30:52;18.80;61.80
51383;DHT22;37475;43.358;1.248;2023-04-24T14:33:18;18.80;62.60
51383;DHT22;37475;43.358;1.248;2023-04-24T14:35:44;19.00;62.20
51383;DHT22;37475;43.358;1.248;2023-04-24T14:38:11;19.10;62.90
51383;DHT22;37475;43.358;1.248;2023-04-24T14:40:37;19.30;60.50
51383;DHT22;37475;43.358;1.248;2023-04-24T14:43:03;19.10;62.70
51383;DHT22;37475;43.358;1.248;2023-04-24T14:45:29;19.10;61.70
51383;DHT22;37475;43.358;1.248;2023-04-24T14:47:55;18.80;62.90
51383;DHT22;37475;43.358;1.248;2023-04-24T14:50:22;19.00;63.30
51383;DHT22;37475;43.358;1.248;2023-04-24T14:52:47;18.90;62.90
51383;DHT22;37475;43.358;1.248;2023-04-24T14:55:13;19.30;62.00
51383;DHT22;37475;43.358;1.248;2023-04-24T14:57:39;19.60;61.00
51383;DHT22;37475;43.358;1.248;2023-04-24T15:00:06;19.30;62.60
51383;DHT22;37475;43.358;1.248;2023-04-24T15:02:35;19.70;60.90
51383;DHT22;37475;43.358;1.248;2023-04-24T15:05:05;20.10;60.00
51383;DHT22;37475;43.358;1.248;2023-04-24T15:07:32;20.00;58.80
51383;DHT22;37475;43.358;1.248;2023-04-24T15:09:58;19.10;62.40
51383;DHT22;37475;43.358;1.248;2023-04-24T15:12:24;19.30;63.40
51383;DHT22;37475;43.358;1.248;2023-04-24T15:14:50;19.10;62.80
51383;DHT22;37475;43.358;1.248;2023-04-24T15:17:16;19.10;63.70
51383;DHT22;37475;43.358;1.248;2023-04-24T15:19:42;18.70;63.90
51383;DHT22;37475;43.358;1.248;2023-04-24T15:22:07;19.00;63.10
51383;DHT22;37475;43.358;1.248;2023-04-24T15:24:33;19.10;61.80
51383;DHT22;37475;43.358;1.248;2023-04-24T15:26:59;19.00;63.20
51383;DHT22;37475;43.358;1.248;2023-04-24T15:29:27;18.80;62.20
51383;DHT22;37475;43.358;1.248;2023-04-24T15:31:53;19.10;63.90
51383;DHT22;37475;43.358;1.248;2023-04-24T15:34:19;19.30;61.20
51383;DHT22;37475;43.358;1.248;2023-04-24T15:36:45;19.10;62.60
51383;DHT22;37475;43.358;1.248;2023-04-24T15:39:11;19.30;61.80
51383;DHT22;37475;43.358;1.248;2023-04-24T15:41:37;18.90;63.50
51383;DHT22;37475;43.358;1.248;2023-04-24T15:44:03;18.60;64.20